sensor_id;sensor_type;location;lat;lon;timestamp;P1;durP1;ratioP1;P2;durP2;ratioP2
13002;SDS011;66869;57.706;11.922;2023-04-03T00:02:08;0.30;;;0.30;;
13002;SDS011;66869;57.706;11.922;2023-04-03T00:04:33;0.30;;;0.30;;
13002;SDS011;66869;57.706;11.922;2023-04-03T00:06:59;0.20;;;0.20;;
13002;SDS011;66869;57.706;11.922;2023-04-03T00:09:25;0.32;;;0.25;;
13002;SDS011;66869;57.706;11.922;2023-04-03T00:11:51;0.20;;;0.20;;
13002;SDS011;66869;57.706;11.922;2023-04-03T00:14:16;0.10;;;0.10;;
13002;SDS011;66869;57.706;11.922;2023-04-03T00:16:41;0.30;;;0.25;;
13002;SDS011;66869;57.706;11.922;2023-04-03T00:19:07;0.20;;;0.20;;
13002;SDS011;66869;57.706;11.922;2023-04-03T00:21:32;0.30;;;0.30;;
13002;SDS011;66869;57.706;11.922;2023-04-03T00:23:57;0.20;;;0.20;;
13002;SDS011;66869;57.706;11.922;2023-04-03T00:26:23;0.30;;;0.30;;
13002;SDS011;66869;57.706;11.922;2023-04-03T00:28:48;0.20;;;0.20;;
13002;SDS011;66869;57.706;11.922;2023-04-03T00:31:14;0.20;;;0.20;;
13002;SDS011;66869;57.706;11.922;2023-04-03T00:33:40;0.20;;;0.20;;
13002;SDS011;66869;57.706;11.922;2023-04-03T00:36:06;0.22;;;0.22;;
13002;SDS011;66869;57.706;11.922;2023-04-03T00:38:32;0.22;;;0.22;;
13002;SDS011;66869;57.706;11.922;2023-04-03T00:40:57;0.30;;;0.30;;
13002;SDS011;66869;57.706;11.922;2023-04-03T00:43:24;0.77;;;0.20;;
13002;SDS011;66869;57.706;11.922;2023-04-03T00:45:50;0.20;;;0.20;;
13002;SDS011;66869;57.706;11.922;2023-04-03T00:48:38;0.15;;;0.15;;
13002;SDS011;66869;57.706;11.922;2023-04-03T00:51:01;0.20;;;0.20;;
13002;SDS011;66869;57.706;11.922;2023-04-03T00:53:29;0.43;;;0.30;;
13002;SDS011;66869;57.706;11.922;2023-04-03T00:55:55;0.20;;;0.20;;
13002;SDS011;66869;57.706;11.922;2023-04-03T00:58:21;0.10;;;0.10;;
13002;SDS011;66869;57.706;11.922;2023-04-03T01:00:50;0.10;;;0.10;;
13002;SDS011;66869;57.706;11.922;2023-04-03T01:03:21;0.20;;;0.20;;
13002;SDS011;66869;57.706;11.922;2023-04-03T01:05:46;0.20;;;0.20;;
13002;SDS011;66869;57.706;11.922;2023-04-03T01:08:12;0.63;;;0.32;;
13002;SDS011;66869;57.706;11.922;2023-04-03T01:10:37;0.20;;;0.20;;
13002;SDS011;66869;57.706;11.922;2023-04-03T01:13:02;0.30;;;0.30;;
13002;SDS011;66869;57.706;11.922;2023-04-03T01:15:41;0.22;;;0.20;;
13002;SDS011;66869;57.706;11.922;2023-04-03T01:18:09;0.80;;;0.30;;
13002;SDS011;66869;57.706;11.922;2023-04-03T01:20:38;0.10;;;0.10;;
13002;SDS011;66869;57.706;11.922;2023-04-03T01:23:22;0.43;;;0.30;;
13002;SDS011;66869;57.706;11.922;2023-04-03T01:25:50;0.30;;;0.30;;
13002;SDS011;66869;57.706;11.922;2023-04-03T01:28:26;0.20;;;0.20;;
13002;SDS011;66869;57.706;11.922;2023-04-03T01:33:37;0.30;;;0.30;;
13002;SDS011;66869;57.706;11.922;2023-04-03T01:36:02;0.20;;;0.20;;
13002;SDS011;66869;57.706;11.922;2023-04-03T01:38:28;0.57;;;0.30;;
13002;SDS011;66869;57.706;11.922;2023-04-03T01:40:53;0.20;;;0.20;;
13002;SDS011;66869;57.706;11.922;2023-04-03T01:43:19;0.20;;;0.20;;
13002;SDS011;66869;57.706;11.922;2023-04-03T01:45:44;0.80;;;0.20;;
13002;SDS011;66869;57.706;11.922;2023-04-03T01:48:11;0.32;;;0.30;;
13002;SDS011;66869;57.706;11.922;2023-04-03T01:50:36;0.30;;;0.22;;
13002;SDS011;66869;57.706;11.922;2023-04-03T01:53:02;0.20;;;0.20;;
13002;SDS011;66869;57.706;11.922;2023-04-03T01:55:27;0.98;;;0.20;;
13002;SDS011;66869;57.706;11.922;2023-04-03T01:57:52;1.10;;;0.20;;
13002;SDS011;66869;57.706;11.922;2023-04-03T02:00:17;0.10;;;0.10;;
13002;SDS011;66869;57.706;11.922;2023-04-03T02:02:43;0.20;;;0.15;;
13002;SDS011;66869;57.706;11.922;2023-04-03T02:05:08;0.20;;;0.20;;
13002;SDS011;66869;57.706;11.922;2023-04-03T02:07:33;0.20;;;0.20;;
13002;SDS011;66869;57.706;11.922;2023-04-03T02:09:59;0.22;;;0.22;;
13002;SDS011;66869;57.706;11.922;2023-04-03T02:12:24;0.43;;;0.25;;
13002;SDS011;66869;57.706;11.922;2023-04-03T02:14:49;0.43;;;0.30;;
13002;SDS011;66869;57.706;11.922;2023-04-03T02:17:15;0.20;;;0.20;;
13002;SDS011;66869;57.706;11.922;2023-04-03T02:19:40;0.20;;;0.20;;
13002;SDS011;66869;57.706;11.922;2023-04-03T02:22:05;0.40;;;0.30;;
13002;SDS011;66869;57.706;11.922;2023-04-03T02:24:31;0.20;;;0.20;;
13002;SDS011;66869;57.706;11.922;2023-04-03T02:26:57;0.10;;;0.10;;
13002;SDS011;66869;57.706;11.922;2023-04-03T02:29:22;0.10;;;0.10;;
13002;SDS011;66869;57.706;11.922;2023-04-03T02:31:48;0.30;;;0.30;;
13002;SDS011;66869;57.706;11.922;2023-04-03T02:34:13;0.20;;;0.20;;
13002;SDS011;66869;57.706;11.922;2023-04-03T02:36:39;0.20;;;0.20;;
13002;SDS011;66869;57.706;11.922;2023-04-03T02:39:04;0.38;;;0.30;;
13002;SDS011;66869;57.706;11.922;2023-04-03T02:41:30;0.43;;;0.30;;
13002;SDS011;66869;57.706;11.922;2023-04-03T02:44:00;0.45;;;0.20;;
13002;SDS011;66869;57.706;11.922;2023-04-03T02:46:25;0.25;;;0.25;;
13002;SDS011;66869;57.706;11.922;2023-04-03T02:48:51;0.10;;;0.10;;
13002;SDS011;66869;57.706;11.922;2023-04-03T02:51:16;0.13;;;0.13;;
13002;SDS011;66869;57.706;11.922;2023-04-03T02:53:41;0.30;;;0.20;;
13002;SDS011;66869;57.706;11.922;2023-04-03T02:56:06;0.30;;;0.20;;
13002;SDS011;66869;57.706;11.922;2023-04-03T02:58:32;0.10;;;0.10;;
13002;SDS011;66869;57.706;11.922;2023-04-03T03:00:57;0.20;;;0.20;;
13002;SDS011;66869;57.706;11.922;2023-04-03T03:03:22;0.52;;;0.30;;
13002;SDS011;66869;57.706;11.922;2023-04-03T03:05:48;0.43;;;0.30;;
13002;SDS011;66869;57.706;11.922;2023-04-03T03:08:13;0.20;;;0.20;;
13002;SDS011;66869;57.706;11.922;2023-04-03T03:10:38;0.70;;;0.28;;
13002;SDS011;66869;57.706;11.922;2023-04-03T03:13:03;0.22;;;0.22;;
13002;SDS011;66869;57.706;11.922;2023-04-03T03:15:29;0.40;;;0.40;;
13002;SDS011;66869;57.706;11.922;2023-04-03T03:17:54;0.30;;;0.30;;
13002;SDS011;66869;57.706;11.922;2023-04-03T03:20:20;0.22;;;0.22;;
13002;SDS011;66869;57.706;11.922;2023-04-03T03:22:45;1.02;;;0.20;;
13002;SDS011;66869;57.706;11.922;2023-04-03T03:25:11;0.85;;;0.30;;
13002;SDS011;66869;57.706;11.922;2023-04-03T03:27:36;0.20;;;0.20;;
13002;SDS011;66869;57.706;11.922;2023-04-03T03:30:01;0.35;;;0.30;;
13002;SDS011;66869;57.706;11.922;2023-04-03T03:32:27;0.38;;;0.10;;
13002;SDS011;66869;57.706;11.922;2023-04-03T03:34:52;0.20;;;0.20;;
13002;SDS011;66869;57.706;11.922;2023-04-03T03:37:17;0.20;;;0.20;;
13002;SDS011;66869;57.706;11.922;2023-04-03T03:39:43;1.10;;;0.30;;
13002;SDS011;66869;57.706;11.922;2023-04-03T03:42:08;0.10;;;0.10;;
13002;SDS011;66869;57.706;11.922;2023-04-03T03:44:33;0.75;;;0.30;;
13002;SDS011;66869;57.706;11.922;2023-04-03T03:46:58;0.20;;;0.20;;
13002;SDS011;66869;57.706;11.922;2023-04-03T03:49:24;0.20;;;0.20;;
13002;SDS011;66869;57.706;11.922;2023-04-03T03:51:50;0.15;;;0.15;;
13002;SDS011;66869;57.706;11.922;2023-04-03T03:54:15;0.20;;;0.20;;
13002;SDS011;66869;57.706;11.922;2023-04-03T03:56:41;0.70;;;0.20;;
13002;SDS011;66869;57.706;11.922;2023-04-03T03:59:06;0.73;;;0.35;;
13002;SDS011;66869;57.706;11.922;2023-04-03T04:01:31;0.22;;;0.22;;
13002;SDS011;66869;57.706;11.922;2023-04-03T04:03:57;0.28;;;0.28;;
13002;SDS011;66869;57.706;11.922;2023-04-03T04:06:22;0.52;;;0.22;;
13002;SDS011;66869;57.706;11.922;2023-04-03T04:08:48;0.20;;;0.20;;
13002;SDS011;66869;57.706;11.922;2023-04-03T04:11:13;0.10;;;0.10;;
13002;SDS011;66869;57.706;11.922;2023-04-03T04:13:39;0.30;;;0.30;;
13002;SDS011;66869;57.706;11.922;2023-04-03T04:16:05;0.20;;;0.20;;
13002;SDS011;66869;57.706;11.922;2023-04-03T04:18:31;0.20;;;0.20;;
13002;SDS011;66869;57.706;11.922;2023-04-03T04:20:56;0.70;;;0.20;;
13002;SDS011;66869;57.706;11.922;2023-04-03T04:23:21;0.93;;;0.47;;
13002;SDS011;66869;57.706;11.922;2023-04-03T04:25:47;0.20;;;0.20;;
13002;SDS011;66869;57.706;11.922;2023-04-03T04:28:13;0.30;;;0.30;;
13002;SDS011;66869;57.706;11.922;2023-04-03T04:30:38;0.28;;;0.20;;
13002;SDS011;66869;57.706;11.922;2023-04-03T04:33:04;1.23;;;0.20;;
13002;SDS011;66869;57.706;11.922;2023-04-03T04:35:29;0.20;;;0.20;;
13002;SDS011;66869;57.706;11.922;2023-04-03T04:37:55;0.43;;;0.20;;
13002;SDS011;66869;57.706;11.922;2023-04-03T04:40:20;0.43;;;0.20;;
13002;SDS011;66869;57.706;11.922;2023-04-03T04:42:45;0.30;;;0.30;;
13002;SDS011;66869;57.706;11.922;2023-04-03T04:45:11;0.30;;;0.20;;
13002;SDS011;66869;57.706;11.922;2023-04-03T04:47:36;0.30;;;0.30;;
13002;SDS011;66869;57.706;11.922;2023-04-03T04:50:02;0.20;;;0.20;;
13002;SDS011;66869;57.706;11.922;2023-04-03T04:52:27;1.00;;;0.30;;
13002;SDS011;66869;57.706;11.922;2023-04-03T04:54:52;0.30;;;0.30;;
13002;SDS011;66869;57.706;11.922;2023-04-03T04:57:17;3.25;;;0.50;;
13002;SDS011;66869;57.706;11.922;2023-04-03T04:59:43;0.10;;;0.10;;
13002;SDS011;66869;57.706;11.922;2023-04-03T05:02:08;0.10;;;0.10;;
13002;SDS011;66869;57.706;11.922;2023-04-03T05:04:33;0.30;;;0.30;;
13002;SDS011;66869;57.706;11.922;2023-04-03T05:06:58;0.20;;;0.20;;
13002;SDS011;66869;57.706;11.922;2023-04-03T05:09:24;0.52;;;0.20;;
13002;SDS011;66869;57.706;11.922;2023-04-03T05:11:50;0.10;;;0.10;;
13002;SDS011;66869;57.706;11.922;2023-04-03T05:14:15;0.40;;;0.40;;
13002;SDS011;66869;57.706;11.922;2023-04-03T05:16:40;0.55;;;0.15;;
13002;SDS011;66869;57.706;11.922;2023-04-03T05:19:05;1.05;;;0.32;;
13002;SDS011;66869;57.706;11.922;2023-04-03T05:21:31;2.30;;;0.50;;
13002;SDS011;66869;57.706;11.922;2023-04-03T05:24:00;0.95;;;0.40;;
13002;SDS011;66869;57.706;11.922;2023-04-03T05:26:29;46.95;;;8.55;;
13002;SDS011;66869;57.706;11.922;2023-04-03T05:28:55;45.75;;;10.52;;
13002;SDS011;66869;57.706;11.922;2023-04-03T05:31:20;44.28;;;10.68;;
13002;SDS011;66869;57.706;11.922;2023-04-03T05:33:45;39.97;;;7.95;;
13002;SDS011;66869;57.706;11.922;2023-04-03T05:36:12;39.47;;;7.40;;
13002;SDS011;66869;57.706;11.922;2023-04-03T05:38:37;39.33;;;6.18;;
13002;SDS011;66869;57.706;11.922;2023-04-03T05:41:03;30.30;;;6.85;;
13002;SDS011;66869;57.706;11.922;2023-04-03T05:43:28;25.13;;;5.47;;
13002;SDS011;66869;57.706;11.922;2023-04-03T05:45:53;23.33;;;5.32;;
13002;SDS011;66869;57.706;11.922;2023-04-03T05:48:19;22.92;;;4.47;;
13002;SDS011;66869;57.706;11.922;2023-04-03T05:50:45;18.27;;;3.80;;
13002;SDS011;66869;57.706;11.922;2023-04-03T05:53:13;20.05;;;3.80;;
13002;SDS011;66869;57.706;11.922;2023-04-03T05:55:39;18.42;;;3.75;;
13002;SDS011;66869;57.706;11.922;2023-04-03T05:58:04;14.95;;;3.70;;
13002;SDS011;66869;57.706;11.922;2023-04-03T06:00:30;17.98;;;3.15;;
13002;SDS011;66869;57.706;11.922;2023-04-03T06:02:55;11.80;;;2.70;;
13002;SDS011;66869;57.706;11.922;2023-04-03T06:05:20;17.40;;;3.10;;
13002;SDS011;66869;57.706;11.922;2023-04-03T06:07:46;11.38;;;2.55;;
13002;SDS011;66869;57.706;11.922;2023-04-03T06:10:11;8.48;;;2.20;;
13002;SDS011;66869;57.706;11.922;2023-04-03T06:12:37;8.15;;;2.20;;
13002;SDS011;66869;57.706;11.922;2023-04-03T06:15:02;6.65;;;1.92;;
13002;SDS011;66869;57.706;11.922;2023-04-03T06:17:28;5.43;;;1.90;;
13002;SDS011;66869;57.706;11.922;2023-04-03T06:19:54;8.70;;;2.13;;
13002;SDS011;66869;57.706;11.922;2023-04-03T06:22:20;2.95;;;1.35;;
13002;SDS011;66869;57.706;11.922;2023-04-03T06:24:46;7.30;;;1.80;;
13002;SDS011;66869;57.706;11.922;2023-04-03T06:27:11;4.28;;;1.23;;
13002;SDS011;66869;57.706;11.922;2023-04-03T06:29:37;5.90;;;1.58;;
13002;SDS011;66869;57.706;11.922;2023-04-03T06:32:02;4.22;;;1.40;;
13002;SDS011;66869;57.706;11.922;2023-04-03T06:34:28;7.63;;;1.42;;
13002;SDS011;66869;57.706;11.922;2023-04-03T06:36:53;4.28;;;1.23;;
13002;SDS011;66869;57.706;11.922;2023-04-03T06:39:19;1.90;;;0.85;;
13002;SDS011;66869;57.706;11.922;2023-04-03T06:41:48;4.03;;;1.25;;
13002;SDS011;66869;57.706;11.922;2023-04-03T06:44:13;2.13;;;0.70;;
13002;SDS011;66869;57.706;11.922;2023-04-03T06:46:40;4.13;;;0.75;;
13002;SDS011;66869;57.706;11.922;2023-04-03T06:49:06;1.60;;;0.80;;
13002;SDS011;66869;57.706;11.922;2023-04-03T06:51:33;2.13;;;0.80;;
13002;SDS011;66869;57.706;11.922;2023-04-03T06:53:58;1.75;;;0.80;;
13002;SDS011;66869;57.706;11.922;2023-04-03T06:56:24;1.70;;;0.90;;
13002;SDS011;66869;57.706;11.922;2023-04-03T06:58:50;1.00;;;0.57;;
13002;SDS011;66869;57.706;11.922;2023-04-03T07:01:17;1.52;;;0.52;;
13002;SDS011;66869;57.706;11.922;2023-04-03T07:03:44;2.38;;;0.70;;
13002;SDS011;66869;57.706;11.922;2023-04-03T07:06:10;1.23;;;0.63;;
13002;SDS011;66869;57.706;11.922;2023-04-03T07:08:36;2.13;;;0.60;;
13002;SDS011;66869;57.706;11.922;2023-04-03T07:11:01;1.25;;;0.50;;
13002;SDS011;66869;57.706;11.922;2023-04-03T07:13:26;2.05;;;0.77;;
13002;SDS011;66869;57.706;11.922;2023-04-03T07:15:52;1.10;;;0.50;;
13002;SDS011;66869;57.706;11.922;2023-04-03T07:18:17;3.13;;;0.60;;
13002;SDS011;66869;57.706;11.922;2023-04-03T07:20:43;0.57;;;0.40;;
13002;SDS011;66869;57.706;11.922;2023-04-03T07:23:08;1.10;;;0.63;;
13002;SDS011;66869;57.706;11.922;2023-04-03T07:25:34;2.70;;;0.52;;
13002;SDS011;66869;57.706;11.922;2023-04-03T07:27:59;0.82;;;0.38;;
13002;SDS011;66869;57.706;11.922;2023-04-03T07:30:25;0.50;;;0.40;;
13002;SDS011;66869;57.706;11.922;2023-04-03T07:32:51;1.08;;;0.32;;
13002;SDS011;66869;57.706;11.922;2023-04-03T07:35:16;0.55;;;0.40;;
13002;SDS011;66869;57.706;11.922;2023-04-03T07:37:42;0.75;;;0.35;;
13002;SDS011;66869;57.706;11.922;2023-04-03T07:40:07;1.27;;;0.43;;
13002;SDS011;66869;57.706;11.922;2023-04-03T07:42:33;0.55;;;0.40;;
13002;SDS011;66869;57.706;11.922;2023-04-03T07:45:00;0.40;;;0.30;;
13002;SDS011;66869;57.706;11.922;2023-04-03T07:47:25;0.52;;;0.35;;
13002;SDS011;66869;57.706;11.922;2023-04-03T07:49:51;0.35;;;0.35;;
13002;SDS011;66869;57.706;11.922;2023-04-03T07:52:16;1.02;;;0.40;;
13002;SDS011;66869;57.706;11.922;2023-04-03T07:54:41;1.70;;;0.60;;
13002;SDS011;66869;57.706;11.922;2023-04-03T07:57:07;2.38;;;0.50;;
13002;SDS011;66869;57.706;11.922;2023-04-03T07:59:32;0.88;;;0.30;;
13002;SDS011;66869;57.706;11.922;2023-04-03T08:01:58;0.95;;;0.20;;
13002;SDS011;66869;57.706;11.922;2023-04-03T08:04:23;0.30;;;0.30;;
13002;SDS011;66869;57.706;11.922;2023-04-03T08:06:48;0.75;;;0.50;;
13002;SDS011;66869;57.706;11.922;2023-04-03T08:09:14;0.35;;;0.30;;
13002;SDS011;66869;57.706;11.922;2023-04-03T08:11:40;0.80;;;0.35;;
13002;SDS011;66869;57.706;11.922;2023-04-03T08:14:05;0.30;;;0.28;;
13002;SDS011;66869;57.706;11.922;2023-04-03T08:16:31;0.55;;;0.30;;
13002;SDS011;66869;57.706;11.922;2023-04-03T08:18:56;0.50;;;0.30;;
13002;SDS011;66869;57.706;11.922;2023-04-03T08:21:21;0.47;;;0.38;;
13002;SDS011;66869;57.706;11.922;2023-04-03T08:23:47;0.90;;;0.40;;
13002;SDS011;66869;57.706;11.922;2023-04-03T08:26:14;0.38;;;0.38;;
13002;SDS011;66869;57.706;11.922;2023-04-03T08:28:41;0.70;;;0.30;;
13002;SDS011;66869;57.706;11.922;2023-04-03T08:31:07;0.20;;;0.20;;
13002;SDS011;66869;57.706;11.922;2023-04-03T08:33:35;1.40;;;0.40;;
13002;SDS011;66869;57.706;11.922;2023-04-03T08:36:02;0.82;;;0.30;;
13002;SDS011;66869;57.706;11.922;2023-04-03T08:38:28;0.68;;;0.20;;
13002;SDS011;66869;57.706;11.922;2023-04-03T08:41:04;0.43;;;0.30;;
13002;SDS011;66869;57.706;11.922;2023-04-03T08:45:55;0.30;;;0.30;;
13002;SDS011;66869;57.706;11.922;2023-04-03T08:50:52;0.20;;;0.20;;
13002;SDS011;66869;57.706;11.922;2023-04-03T08:53:19;0.52;;;0.20;;
13002;SDS011;66869;57.706;11.922;2023-04-03T08:55:46;0.25;;;0.25;;
13002;SDS011;66869;57.706;11.922;2023-04-03T08:58:17;0.13;;;0.13;;
13002;SDS011;66869;57.706;11.922;2023-04-03T09:03:12;0.47;;;0.20;;
13002;SDS011;66869;57.706;11.922;2023-04-03T09:05:43;0.47;;;0.20;;
13002;SDS011;66869;57.706;11.922;2023-04-03T09:10:41;0.20;;;0.20;;
13002;SDS011;66869;57.706;11.922;2023-04-03T09:13:13;1.00;;;0.20;;
13002;SDS011;66869;57.706;11.922;2023-04-03T09:15:43;0.20;;;0.20;;
13002;SDS011;66869;57.706;11.922;2023-04-03T09:18:43;0.25;;;0.10;;
13002;SDS011;66869;57.706;11.922;2023-04-03T09:23:55;0.20;;;0.20;;
13002;SDS011;66869;57.706;11.922;2023-04-03T09:26:56;0.60;;;0.20;;
13002;SDS011;66869;57.706;11.922;2023-04-03T09:29:18;0.20;;;0.20;;
13002;SDS011;66869;57.706;11.922;2023-04-03T09:31:46;0.25;;;0.15;;
13002;SDS011;66869;57.706;11.922;2023-04-03T09:34:22;0.90;;;0.20;;
13002;SDS011;66869;57.706;11.922;2023-04-03T09:41:39;0.10;;;0.10;;
13002;SDS011;66869;57.706;11.922;2023-04-03T09:44:17;0.20;;;0.13;;
13002;SDS011;66869;57.706;11.922;2023-04-03T09:46:44;0.30;;;0.30;;
13002;SDS011;66869;57.706;11.922;2023-04-03T09:49:10;0.10;;;0.10;;
13002;SDS011;66869;57.706;11.922;2023-04-03T09:51:36;0.70;;;0.20;;
13002;SDS011;66869;57.706;11.922;2023-04-03T09:54:23;0.47;;;0.20;;
13002;SDS011;66869;57.706;11.922;2023-04-03T09:56:50;1.02;;;0.30;;
13002;SDS011;66869;57.706;11.922;2023-04-03T09:59:16;0.20;;;0.10;;
13002;SDS011;66869;57.706;11.922;2023-04-03T10:01:42;0.20;;;0.20;;
13002;SDS011;66869;57.706;11.922;2023-04-03T10:04:12;0.20;;;0.20;;
13002;SDS011;66869;57.706;11.922;2023-04-03T10:06:39;0.20;;;0.20;;
13002;SDS011;66869;57.706;11.922;2023-04-03T10:12:05;0.10;;;0.10;;
13002;SDS011;66869;57.706;11.922;2023-04-03T10:14:35;0.20;;;0.10;;
13002;SDS011;66869;57.706;11.922;2023-04-03T10:19:47;0.90;;;0.20;;
13002;SDS011;66869;57.706;11.922;2023-04-03T10:22:18;0.10;;;0.10;;
13002;SDS011;66869;57.706;11.922;2023-04-03T10:27:29;0.43;;;0.20;;
13002;SDS011;66869;57.706;11.922;2023-04-03T10:30:04;0.20;;;0.20;;
13002;SDS011;66869;57.706;11.922;2023-04-03T10:38:04;0.65;;;0.17;;
13002;SDS011;66869;57.706;11.922;2023-04-03T10:48:19;0.35;;;0.30;;
13002;SDS011;66869;57.706;11.922;2023-04-03T10:53:32;0.30;;;0.30;;
13002;SDS011;66869;57.706;11.922;2023-04-03T10:56:03;0.55;;;0.30;;
13002;SDS011;66869;57.706;11.922;2023-04-03T11:00:57;0.27;;;0.20;;
13002;SDS011;66869;57.706;11.922;2023-04-03T11:03:42;0.20;;;0.20;;
13002;SDS011;66869;57.706;11.922;2023-04-03T11:06:10;0.82;;;0.25;;
13002;SDS011;66869;57.706;11.922;2023-04-03T11:08:53;0.32;;;0.28;;
13002;SDS011;66869;57.706;11.922;2023-04-03T11:11:26;0.20;;;0.20;;
13002;SDS011;66869;57.706;11.922;2023-04-03T11:13:54;0.30;;;0.30;;
13002;SDS011;66869;57.706;11.922;2023-04-03T11:16:24;0.45;;;0.40;;
13002;SDS011;66869;57.706;11.922;2023-04-03T11:18:52;0.20;;;0.20;;
13002;SDS011;66869;57.706;11.922;2023-04-03T11:21:27;0.30;;;0.30;;
13002;SDS011;66869;57.706;11.922;2023-04-03T11:23:54;0.50;;;0.30;;
13002;SDS011;66869;57.706;11.922;2023-04-03T11:26:22;1.27;;;0.32;;
13002;SDS011;66869;57.706;11.922;2023-04-03T11:28:56;0.30;;;0.25;;
13002;SDS011;66869;57.706;11.922;2023-04-03T11:31:33;0.43;;;0.20;;
13002;SDS011;66869;57.706;11.922;2023-04-03T11:37:11;0.30;;;0.30;;
13002;SDS011;66869;57.706;11.922;2023-04-03T11:39:32;0.80;;;0.35;;
13002;SDS011;66869;57.706;11.922;2023-04-03T11:42:17;0.30;;;0.30;;
13002;SDS011;66869;57.706;11.922;2023-04-03T11:44:46;0.40;;;0.20;;
13002;SDS011;66869;57.706;11.922;2023-04-03T11:47:12;0.60;;;0.47;;
13002;SDS011;66869;57.706;11.922;2023-04-03T11:50:01;1.10;;;0.25;;
13002;SDS011;66869;57.706;11.922;2023-04-03T12:01:10;0.77;;;0.20;;
13002;SDS011;66869;57.706;11.922;2023-04-03T12:05:49;0.43;;;0.10;;
13002;SDS011;66869;57.706;11.922;2023-04-03T12:29:10;0.20;;;0.20;;
13002;SDS011;66869;57.706;11.922;2023-04-03T12:31:46;0.35;;;0.20;;
13002;SDS011;66869;57.706;11.922;2023-04-03T12:37:57;0.20;;;0.20;;
13002;SDS011;66869;57.706;11.922;2023-04-03T12:39:52;0.15;;;0.15;;
13002;SDS011;66869;57.706;11.922;2023-04-03T12:45:02;0.20;;;0.20;;
13002;SDS011;66869;57.706;11.922;2023-04-03T12:47:35;0.20;;;0.20;;
13002;SDS011;66869;57.706;11.922;2023-04-03T12:50:03;0.15;;;0.15;;
13002;SDS011;66869;57.706;11.922;2023-04-03T12:52:37;0.10;;;0.10;;
13002;SDS011;66869;57.706;11.922;2023-04-03T12:55:07;0.20;;;0.20;;
13002;SDS011;66869;57.706;11.922;2023-04-03T12:57:35;0.93;;;0.28;;
13002;SDS011;66869;57.706;11.922;2023-04-03T13:00:00;0.10;;;0.10;;
13002;SDS011;66869;57.706;11.922;2023-04-03T13:02:43;0.10;;;0.10;;
13002;SDS011;66869;57.706;11.922;2023-04-03T13:05:13;0.10;;;0.10;;
13002;SDS011;66869;57.706;11.922;2023-04-03T13:07:38;0.10;;;0.10;;
13002;SDS011;66869;57.706;11.922;2023-04-03T13:12:55;0.98;;;0.20;;
13002;SDS011;66869;57.706;11.922;2023-04-03T13:15:26;0.20;;;0.20;;
13002;SDS011;66869;57.706;11.922;2023-04-03T13:17:52;1.00;;;0.35;;
13002;SDS011;66869;57.706;11.922;2023-04-03T13:20:23;0.20;;;0.20;;
13002;SDS011;66869;57.706;11.922;2023-04-03T13:23:10;0.20;;;0.20;;
13002;SDS011;66869;57.706;11.922;2023-04-03T13:25:35;0.20;;;0.20;;
13002;SDS011;66869;57.706;11.922;2023-04-03T13:28:03;0.20;;;0.20;;
13002;SDS011;66869;57.706;11.922;2023-04-03T13:30:32;0.13;;;0.13;;
13002;SDS011;66869;57.706;11.922;2023-04-03T13:32:59;0.10;;;0.10;;
13002;SDS011;66869;57.706;11.922;2023-04-03T13:35:38;0.10;;;0.10;;
13002;SDS011;66869;57.706;11.922;2023-04-03T13:40:52;0.28;;;0.10;;
13002;SDS011;66869;57.706;11.922;2023-04-03T13:43:20;0.10;;;0.10;;
13002;SDS011;66869;57.706;11.922;2023-04-03T13:48:20;0.10;;;0.10;;
13002;SDS011;66869;57.706;11.922;2023-04-03T13:51:22;0.20;;;0.10;;
13002;SDS011;66869;57.706;11.922;2023-04-03T13:53:59;0.55;;;0.25;;
13002;SDS011;66869;57.706;11.922;2023-04-03T13:56:37;0.10;;;0.10;;
13002;SDS011;66869;57.706;11.922;2023-04-03T14:01:40;0.10;;;0.10;;
13002;SDS011;66869;57.706;11.922;2023-04-03T14:04:10;0.38;;;0.10;;
13002;SDS011;66869;57.706;11.922;2023-04-03T14:06:36;0.03;;;0.03;;
13002;SDS011;66869;57.706;11.922;2023-04-03T14:09:02;0.47;;;0.22;;
13002;SDS011;66869;57.706;11.922;2023-04-03T14:11:29;0.10;;;0.10;;
13002;SDS011;66869;57.706;11.922;2023-04-03T14:13:55;0.20;;;0.10;;
13002;SDS011;66869;57.706;11.922;2023-04-03T14:16:23;0.10;;;0.10;;
13002;SDS011;66869;57.706;11.922;2023-04-03T14:18:50;0.28;;;0.20;;
13002;SDS011;66869;57.706;11.922;2023-04-03T14:21:17;0.10;;;0.10;;
13002;SDS011;66869;57.706;11.922;2023-04-03T14:23:43;0.05;;;0.05;;
13002;SDS011;66869;57.706;11.922;2023-04-03T14:26:09;0.28;;;0.20;;
13002;SDS011;66869;57.706;11.922;2023-04-03T14:28:36;0.10;;;0.10;;
13002;SDS011;66869;57.706;11.922;2023-04-03T14:31:02;0.10;;;0.10;;
13002;SDS011;66869;57.706;11.922;2023-04-03T14:33:27;0.10;;;0.10;;
13002;SDS011;66869;57.706;11.922;2023-04-03T14:35:56;0.20;;;0.15;;
13002;SDS011;66869;57.706;11.922;2023-04-03T14:38:25;0.10;;;0.10;;
13002;SDS011;66869;57.706;11.922;2023-04-03T14:40:51;0.10;;;0.10;;
13002;SDS011;66869;57.706;11.922;2023-04-03T14:43:17;0.10;;;0.10;;
13002;SDS011;66869;57.706;11.922;2023-04-03T14:45:43;0.73;;;0.20;;
13002;SDS011;66869;57.706;11.922;2023-04-03T14:48:15;0.10;;;0.10;;
13002;SDS011;66869;57.706;11.922;2023-04-03T14:50:42;0.10;;;0.10;;
13002;SDS011;66869;57.706;11.922;2023-04-03T14:53:07;0.10;;;0.10;;
13002;SDS011;66869;57.706;11.922;2023-04-03T14:55:32;0.10;;;0.10;;
13002;SDS011;66869;57.706;11.922;2023-04-03T14:57:58;0.20;;;0.20;;
13002;SDS011;66869;57.706;11.922;2023-04-03T15:00:23;0.35;;;0.17;;
13002;SDS011;66869;57.706;11.922;2023-04-03T15:02:49;1.42;;;0.10;;
13002;SDS011;66869;57.706;11.922;2023-04-03T15:05:14;0.10;;;0.10;;
13002;SDS011;66869;57.706;11.922;2023-04-03T15:07:41;0.13;;;0.10;;
13002;SDS011;66869;57.706;11.922;2023-04-03T15:10:15;0.10;;;0.10;;
13002;SDS011;66869;57.706;11.922;2023-04-03T15:12:40;1.50;;;0.10;;
13002;SDS011;66869;57.706;11.922;2023-04-03T15:15:06;0.15;;;0.10;;
13002;SDS011;66869;57.706;11.922;2023-04-03T15:17:31;0.32;;;0.10;;
13002;SDS011;66869;57.706;11.922;2023-04-03T15:19:56;0.10;;;0.10;;
13002;SDS011;66869;57.706;11.922;2023-04-03T15:22:23;0.10;;;0.10;;
13002;SDS011;66869;57.706;11.922;2023-04-03T15:24:48;1.67;;;0.20;;
13002;SDS011;66869;57.706;11.922;2023-04-03T15:27:13;0.10;;;0.10;;
13002;SDS011;66869;57.706;11.922;2023-04-03T15:29:40;0.32;;;0.17;;
13002;SDS011;66869;57.706;11.922;2023-04-03T15:32:06;0.10;;;0.10;;
13002;SDS011;66869;57.706;11.922;2023-04-03T15:34:32;0.00;;;0.00;;
13002;SDS011;66869;57.706;11.922;2023-04-03T15:36:57;0.10;;;0.10;;
13002;SDS011;66869;57.706;11.922;2023-04-03T15:39:24;0.80;;;0.15;;
13002;SDS011;66869;57.706;11.922;2023-04-03T15:41:49;0.10;;;0.10;;
13002;SDS011;66869;57.706;11.922;2023-04-03T15:44:16;0.10;;;0.10;;
13002;SDS011;66869;57.706;11.922;2023-04-03T15:46:42;0.10;;;0.10;;
13002;SDS011;66869;57.706;11.922;2023-04-03T15:49:08;0.10;;;0.10;;
13002;SDS011;66869;57.706;11.922;2023-04-03T15:51:33;0.65;;;0.20;;
13002;SDS011;66869;57.706;11.922;2023-04-03T15:53:59;0.10;;;0.10;;
13002;SDS011;66869;57.706;11.922;2023-04-03T15:56:24;0.15;;;0.10;;
13002;SDS011;66869;57.706;11.922;2023-04-03T15:58:49;0.10;;;0.10;;
13002;SDS011;66869;57.706;11.922;2023-04-03T16:01:15;0.60;;;0.10;;
13002;SDS011;66869;57.706;11.922;2023-04-03T16:03:40;0.20;;;0.10;;
13002;SDS011;66869;57.706;11.922;2023-04-03T16:06:10;0.00;;;0.00;;
13002;SDS011;66869;57.706;11.922;2023-04-03T16:08:36;0.10;;;0.10;;
13002;SDS011;66869;57.706;11.922;2023-04-03T16:11:01;0.10;;;0.10;;
13002;SDS011;66869;57.706;11.922;2023-04-03T16:13:27;0.10;;;0.10;;